sensor_id;sensor_type;location;lat;lon;timestamp;temperature;humidity
16523;DHT22;19889;52.546;13.348;2024-01-30T00:02:14;5.40;99.90
16523;DHT22;19889;52.546;13.348;2024-01-30T00:04:42;5.40;99.90
16523;DHT22;19889;52.546;13.348;2024-01-30T00:07:10;5.40;99.90
16523;DHT22;19889;52.546;13.348;2024-01-30T00:09:38;5.40;99.90
16523;DHT22;19889;52.546;13.348;2024-01-30T00:12:06;5.40;99.90
16523;DHT22;19889;52.546;13.348;2024-01-30T00:14:33;5.30;99.90
16523;DHT22;19889;52.546;13.348;2024-01-30T00:17:00;5.30;99.90
16523;DHT22;19889;52.546;13.348;2024-01-30T00:19:27;5.30;99.90
16523;DHT22;19889;52.546;13.348;2024-01-30T00:21:56;5.30;99.90
16523;DHT22;19889;52.546;13.348;2024-01-30T00:24:23;5.30;99.90
16523;DHT22;19889;52.546;13.348;2024-01-30T00:26:50;5.30;99.90
16523;DHT22;19889;52.546;13.348;2024-01-30T00:29:18;5.30;99.90
16523;DHT22;19889;52.546;13.348;2024-01-30T00:31:47;5.30;99.90
16523;DHT22;19889;52.546;13.348;2024-01-30T00:34:14;5.30;99.90
16523;DHT22;19889;52.546;13.348;2024-01-30T00:36:41;5.30;99.90
16523;DHT22;19889;52.546;13.348;2024-01-30T00:39:10;5.20;99.90
16523;DHT22;19889;52.546;13.348;2024-01-30T00:41:37;5.20;99.90
16523;DHT22;19889;52.546;13.348;2024-01-30T00:44:05;5.20;99.90
16523;DHT22;19889;52.546;13.348;2024-01-30T00:46:32;5.20;99.90
16523;DHT22;19889;52.546;13.348;2024-01-30T00:49:00;5.20;99.90
16523;DHT22;19889;52.546;13.348;2024-01-30T00:51:27;5.20;99.90
16523;DHT22;19889;52.546;13.348;2024-01-30T00:53:55;5.20;99.90
16523;DHT22;19889;52.546;13.348;2024-01-30T00:56:24;5.20;99.90
16523;DHT22;19889;52.546;13.348;2024-01-30T00:58:51;5.20;99.90
16523;DHT22;19889;52.546;13.348;2024-01-30T01:01:18;5.10;99.90
16523;DHT22;19889;52.546;13.348;2024-01-30T01:03:45;5.10;99.90
16523;DHT22;19889;52.546;13.348;2024-01-30T01:06:12;5.10;99.90
16523;DHT22;19889;52.546;13.348;2024-01-30T01:08:40;5.10;99.90
16523;DHT22;19889;52.546;13.348;2024-01-30T01:11:07;5.10;99.90
16523;DHT22;19889;52.546;13.348;2024-01-30T01:13:35;5.10;99.90
16523;DHT22;19889;52.546;13.348;2024-01-30T01:16:03;5.10;99.90
16523;DHT22;19889;52.546;13.348;2024-01-30T01:18:30;5.10;99.90
16523;DHT22;19889;52.546;13.348;2024-01-30T01:20:57;5.00;99.90
16523;DHT22;19889;52.546;13.348;2024-01-30T01:23:24;5.10;99.90
16523;DHT22;19889;52.546;13.348;2024-01-30T01:25:53;5.00;99.90
16523;DHT22;19889;52.546;13.348;2024-01-30T01:28:21;5.00;99.90
16523;DHT22;19889;52.546;13.348;2024-01-30T01:30:49;5.00;99.90
16523;DHT22;19889;52.546;13.348;2024-01-30T01:33:17;5.00;99.90
16523;DHT22;19889;52.546;13.348;2024-01-30T01:35:44;5.00;99.90
16523;DHT22;19889;52.546;13.348;2024-01-30T01:38:11;5.00;99.90
16523;DHT22;19889;52.546;13.348;2024-01-30T01:40:38;4.90;99.90
16523;DHT22;19889;52.546;13.348;2024-01-30T01:43:06;4.90;99.90
16523;DHT22;19889;52.546;13.348;2024-01-30T01:45:34;4.90;99.90
16523;DHT22;19889;52.546;13.348;2024-01-30T01:48:03;4.90;99.90
16523;DHT22;19889;52.546;13.348;2024-01-30T01:50:30;4.90;99.90
16523;DHT22;19889;52.546;13.348;2024-01-30T01:52:58;4.90;99.90
16523;DHT22;19889;52.546;13.348;2024-01-30T01:55:26;4.90;99.90
16523;DHT22;19889;52.546;13.348;2024-01-30T01:57:54;4.90;99.90
16523;DHT22;19889;52.546;13.348;2024-01-30T02:00:21;4.90;99.90
16523;DHT22;19889;52.546;13.348;2024-01-30T02:02:49;4.90;99.90
16523;DHT22;19889;52.546;13.348;2024-01-30T02:05:18;4.90;99.90
16523;DHT22;19889;52.546;13.348;2024-01-30T02:07:46;4.90;99.90
16523;DHT22;19889;52.546;13.348;2024-01-30T02:10:13;4.80;99.90
16523;DHT22;19889;52.546;13.348;2024-01-30T02:12:41;4.80;99.90
16523;DHT22;19889;52.546;13.348;2024-01-30T02:15:08;4.80;99.90
16523;DHT22;19889;52.546;13.348;2024-01-30T02:17:35;4.80;99.90
16523;DHT22;19889;52.546;13.348;2024-01-30T02:20:02;4.80;99.90
16523;DHT22;19889;52.546;13.348;2024-01-30T02:22:33;4.80;99.90
16523;DHT22;19889;52.546;13.348;2024-01-30T02:25:00;4.80;99.90
16523;DHT22;19889;52.546;13.348;2024-01-30T02:27:28;4.80;99.90
16523;DHT22;19889;52.546;13.348;2024-01-30T02:29:55;4.80;99.90
16523;DHT22;19889;52.546;13.348;2024-01-30T02:32:22;4.80;99.90
16523;DHT22;19889;52.546;13.348;2024-01-30T02:34:49;4.80;99.90
16523;DHT22;19889;52.546;13.348;2024-01-30T02:37:17;4.80;99.90
16523;DHT22;19889;52.546;13.348;2024-01-30T02:39:45;4.80;99.90
16523;DHT22;19889;52.546;13.348;2024-01-30T02:42:12;4.80;99.90
16523;DHT22;19889;52.546;13.348;2024-01-30T02:44:39;4.80;99.90
16523;DHT22;19889;52.546;13.348;2024-01-30T02:47:06;4.80;99.90
16523;DHT22;19889;52.546;13.348;2024-01-30T02:49:34;4.80;99.90
16523;DHT22;19889;52.546;13.348;2024-01-30T02:52:01;4.80;99.90
16523;DHT22;19889;52.546;13.348;2024-01-30T02:54:28;4.80;99.90
16523;DHT22;19889;52.546;13.348;2024-01-30T02:56:57;4.80;99.90
16523;DHT22;19889;52.546;13.348;2024-01-30T02:59:24;4.80;99.90
16523;DHT22;19889;52.546;13.348;2024-01-30T03:01:52;4.80;99.90
16523;DHT22;19889;52.546;13.348;2024-01-30T03:04:19;4.80;99.90
16523;DHT22;19889;52.546;13.348;2024-01-30T03:06:46;4.70;99.90
16523;DHT22;19889;52.546;13.348;2024-01-30T03:09:15;4.70;99.90
16523;DHT22;19889;52.546;13.348;2024-01-30T03:11:42;4.70;99.90
16523;DHT22;19889;52.546;13.348;2024-01-30T03:14:11;4.70;99.90
16523;DHT22;19889;52.546;13.348;2024-01-30T03:16:38;4.70;99.90
16523;DHT22;19889;52.546;13.348;2024-01-30T03:19:06;4.70;99.90
16523;DHT22;19889;52.546;13.348;2024-01-30T03:21:34;4.60;99.90
16523;DHT22;19889;52.546;13.348;2024-01-30T03:24:02;4.60;99.90
16523;DHT22;19889;52.546;13.348;2024-01-30T03:26:29;4.60;99.90
16523;DHT22;19889;52.546;13.348;2024-01-30T03:28:56;4.60;99.90
16523;DHT22;19889;52.546;13.348;2024-01-30T03:31:25;4.60;99.90
16523;DHT22;19889;52.546;13.348;2024-01-30T03:33:52;4.50;99.90
16523;DHT22;19889;52.546;13.348;2024-01-30T03:36:19;4.50;99.90
16523;DHT22;19889;52.546;13.348;2024-01-30T03:38:46;4.50;99.90
16523;DHT22;19889;52.546;13.348;2024-01-30T03:41:13;4.50;99.90
16523;DHT22;19889;52.546;13.348;2024-01-30T03:43:41;4.50;99.90
16523;DHT22;19889;52.546;13.348;2024-01-30T03:46:08;4.50;99.90
16523;DHT22;19889;52.546;13.348;2024-01-30T03:48:36;4.50;99.90
16523;DHT22;19889;52.546;13.348;2024-01-30T03:51:04;4.50;99.90
16523;DHT22;19889;52.546;13.348;2024-01-30T03:53:31;4.50;99.90
16523;DHT22;19889;52.546;13.348;2024-01-30T03:55:58;4.50;99.90
16523;DHT22;19889;52.546;13.348;2024-01-30T03:58:25;4.50;99.90
16523;DHT22;19889;52.546;13.348;2024-01-30T04:00:53;4.50;99.90
16523;DHT22;19889;52.546;13.348;2024-01-30T04:03:20;4.40;99.90
16523;DHT22;19889;52.546;13.348;2024-01-30T04:05:48;4.40;99.90
16523;DHT22;19889;52.546;13.348;2024-01-30T04:08:15;2.00;99.90
16523;DHT22;19889;52.546;13.348;2024-01-30T04:10:42;4.40;99.90
16523;DHT22;19889;52.546;13.348;2024-01-30T04:13:09;4.40;99.90
16523;DHT22;19889;52.546;13.348;2024-01-30T04:15:37;4.40;99.90
16523;DHT22;19889;52.546;13.348;2024-01-30T04:18:04;4.30;99.90
16523;DHT22;19889;52.546;13.348;2024-01-30T04:20:32;4.40;99.90
16523;DHT22;19889;52.546;13.348;2024-01-30T04:23:00;4.30;99.90
16523;DHT22;19889;52.546;13.348;2024-01-30T04:25:27;4.30;99.90
16523;DHT22;19889;52.546;13.348;2024-01-30T04:27:54;4.30;99.90
16523;DHT22;19889;52.546;13.348;2024-01-30T04:30:21;4.30;99.90
16523;DHT22;19889;52.546;13.348;2024-01-30T04:32:48;4.30;99.90
16523;DHT22;19889;52.546;13.348;2024-01-30T04:35:16;4.30;99.90
16523;DHT22;19889;52.546;13.348;2024-01-30T04:37:43;4.30;99.90
16523;DHT22;19889;52.546;13.348;2024-01-30T04:40:12;4.30;99.90
16523;DHT22;19889;52.546;13.348;2024-01-30T04:42:39;4.30;99.90
16523;DHT22;19889;52.546;13.348;2024-01-30T04:45:07;4.30;99.90
16523;DHT22;19889;52.546;13.348;2024-01-30T04:47:34;4.30;99.90
16523;DHT22;19889;52.546;13.348;2024-01-30T04:50:01;4.30;99.90
16523;DHT22;19889;52.546;13.348;2024-01-30T04:52:30;4.30;99.90
16523;DHT22;19889;52.546;13.348;2024-01-30T04:54:57;4.30;99.90
16523;DHT22;19889;52.546;13.348;2024-01-30T04:57:26;4.30;99.90
16523;DHT22;19889;52.546;13.348;2024-01-30T04:59:53;4.30;99.90
16523;DHT22;19889;52.546;13.348;2024-01-30T05:02:21;4.30;99.90
16523;DHT22;19889;52.546;13.348;2024-01-30T05:04:48;4.30;99.90
16523;DHT22;19889;52.546;13.348;2024-01-30T05:07:15;4.30;99.90
16523;DHT22;19889;52.546;13.348;2024-01-30T05:09:42;4.30;99.90
16523;DHT22;19889;52.546;13.348;2024-01-30T05:12:09;4.30;99.90
16523;DHT22;19889;52.546;13.348;2024-01-30T05:14:38;4.30;99.90
16523;DHT22;19889;52.546;13.348;2024-01-30T05:17:05;4.30;99.90
16523;DHT22;19889;52.546;13.348;2024-01-30T05:19:33;4.20;99.90
16523;DHT22;19889;52.546;13.348;2024-01-30T05:22:00;4.30;99.90
16523;DHT22;19889;52.546;13.348;2024-01-30T05:24:27;4.20;99.90
16523;DHT22;19889;52.546;13.348;2024-01-30T05:26:54;4.20;99.90
16523;DHT22;19889;52.546;13.348;2024-01-30T05:29:22;4.20;99.90
16523;DHT22;19889;52.546;13.348;2024-01-30T05:31:50;3.10;99.90
16523;DHT22;19889;52.546;13.348;2024-01-30T05:34:17;4.20;99.90
16523;DHT22;19889;52.546;13.348;2024-01-30T05:36:44;4.20;99.90
16523;DHT22;19889;52.546;13.348;2024-01-30T05:39:12;4.20;99.90
16523;DHT22;19889;52.546;13.348;2024-01-30T05:41:39;4.20;99.90
16523;DHT22;19889;52.546;13.348;2024-01-30T05:44:07;4.20;99.90
16523;DHT22;19889;52.546;13.348;2024-01-30T05:46:35;4.20;99.90
16523;DHT22;19889;52.546;13.348;2024-01-30T05:49:04;4.20;99.90
16523;DHT22;19889;52.546;13.348;2024-01-30T05:51:31;4.20;99.90
16523;DHT22;19889;52.546;13.348;2024-01-30T05:53:59;4.20;99.90
16523;DHT22;19889;52.546;13.348;2024-01-30T05:56:29;4.20;99.90
16523;DHT22;19889;52.546;13.348;2024-01-30T05:58:56;4.20;99.90
16523;DHT22;19889;52.546;13.348;2024-01-30T06:01:23;4.20;99.90
16523;DHT22;19889;52.546;13.348;2024-01-30T06:03:50;4.20;99.90
16523;DHT22;19889;52.546;13.348;2024-01-30T06:06:19;4.20;99.90
16523;DHT22;19889;52.546;13.348;2024-01-30T06:08:46;4.30;99.90
16523;DHT22;19889;52.546;13.348;2024-01-30T06:11:13;4.20;99.90
16523;DHT22;19889;52.546;13.348;2024-01-30T06:13:40;4.20;99.90
16523;DHT22;19889;52.546;13.348;2024-01-30T06:16:10;4.20;99.90
16523;DHT22;19889;52.546;13.348;2024-01-30T06:18:37;4.20;99.90
16523;DHT22;19889;52.546;13.348;2024-01-30T06:21:05;4.30;99.90
16523;DHT22;19889;52.546;13.348;2024-01-30T06:23:33;4.30;99.90
16523;DHT22;19889;52.546;13.348;2024-01-30T06:26:01;4.30;99.90
16523;DHT22;19889;52.546;13.348;2024-01-30T06:28:28;4.30;99.90
16523;DHT22;19889;52.546;13.348;2024-01-30T06:30:55;4.30;99.90
16523;DHT22;19889;52.546;13.348;2024-01-30T06:33:22;4.30;99.90
16523;DHT22;19889;52.546;13.348;2024-01-30T06:35:49;4.30;99.90
16523;DHT22;19889;52.546;13.348;2024-01-30T06:38:16;4.30;99.90
16523;DHT22;19889;52.546;13.348;2024-01-30T06:40:45;4.30;99.90
16523;DHT22;19889;52.546;13.348;2024-01-30T06:43:12;4.40;99.90
16523;DHT22;19889;52.546;13.348;2024-01-30T06:45:39;4.30;99.90
16523;DHT22;19889;52.546;13.348;2024-01-30T06:48:08;4.40;99.90
16523;DHT22;19889;52.546;13.348;2024-01-30T06:50:35;4.40;99.90
16523;DHT22;19889;52.546;13.348;2024-01-30T06:53:03;4.40;99.90
16523;DHT22;19889;52.546;13.348;2024-01-30T06:55:30;4.40;99.90
16523;DHT22;19889;52.546;13.348;2024-01-30T06:57:59;4.40;99.90
16523;DHT22;19889;52.546;13.348;2024-01-30T07:00:26;4.40;99.90
16523;DHT22;19889;52.546;13.348;2024-01-30T07:02:53;4.40;99.90
16523;DHT22;19889;52.546;13.348;2024-01-30T07:05:21;4.40;99.90
16523;DHT22;19889;52.546;13.348;2024-01-30T07:07:48;4.40;99.90
16523;DHT22;19889;52.546;13.348;2024-01-30T07:10:16;4.50;99.90
16523;DHT22;19889;52.546;13.348;2024-01-30T07:12:43;4.50;99.90
16523;DHT22;19889;52.546;13.348;2024-01-30T07:15:12;4.50;99.90
16523;DHT22;19889;52.546;13.348;2024-01-30T07:17:42;4.60;99.90
16523;DHT22;19889;52.546;13.348;2024-01-30T07:20:10;4.60;99.90
16523;DHT22;19889;52.546;13.348;2024-01-30T07:22:37;4.60;99.90
16523;DHT22;19889;52.546;13.348;2024-01-30T07:25:05;4.70;99.90
16523;DHT22;19889;52.546;13.348;2024-01-30T07:27:33;4.70;99.90
16523;DHT22;19889;52.546;13.348;2024-01-30T07:30:00;4.80;99.90
16523;DHT22;19889;52.546;13.348;2024-01-30T07:32:29;4.80;99.90
16523;DHT22;19889;52.546;13.348;2024-01-30T07:34:58;4.80;99.90
16523;DHT22;19889;52.546;13.348;2024-01-30T07:37:26;4.80;99.90
16523;DHT22;19889;52.546;13.348;2024-01-30T07:39:54;3.00;99.90
16523;DHT22;19889;52.546;13.348;2024-01-30T07:42:21;4.80;99.90
16523;DHT22;19889;52.546;13.348;2024-01-30T07:44:49;4.80;99.90
16523;DHT22;19889;52.546;13.348;2024-01-30T07:47:16;4.90;99.90
16523;DHT22;19889;52.546;13.348;2024-01-30T07:49:45;4.90;99.90
16523;DHT22;19889;52.546;13.348;2024-01-30T07:52:12;4.90;99.90
16523;DHT22;19889;52.546;13.348;2024-01-30T07:54:48;5.00;99.90
16523;DHT22;19889;52.546;13.348;2024-01-30T07:57:17;5.00;99.90
16523;DHT22;19889;52.546;13.348;2024-01-30T07:59:44;5.10;99.90
16523;DHT22;19889;52.546;13.348;2024-01-30T08:02:12;5.10;99.90
16523;DHT22;19889;52.546;13.348;2024-01-30T08:04:39;5.10;99.90
16523;DHT22;19889;52.546;13.348;2024-01-30T08:07:08;5.10;99.90
16523;DHT22;19889;52.546;13.348;2024-01-30T08:09:35;5.20;99.90
16523;DHT22;19889;52.546;13.348;2024-01-30T08:12:03;5.20;99.90
16523;DHT22;19889;52.546;13.348;2024-01-30T08:14:31;5.20;99.90
16523;DHT22;19889;52.546;13.348;2024-01-30T08:16:58;5.30;99.90
16523;DHT22;19889;52.546;13.348;2024-01-30T08:19:26;5.30;99.90
16523;DHT22;19889;52.546;13.348;2024-01-30T08:21:53;5.30;99.90
16523;DHT22;19889;52.546;13.348;2024-01-30T08:24:22;5.40;99.90
16523;DHT22;19889;52.546;13.348;2024-01-30T08:26:50;5.40;99.90
16523;DHT22;19889;52.546;13.348;2024-01-30T08:29:17;5.50;99.90
16523;DHT22;19889;52.546;13.348;2024-01-30T08:31:44;5.50;99.90
16523;DHT22;19889;52.546;13.348;2024-01-30T08:34:12;5.50;99.90
16523;DHT22;19889;52.546;13.348;2024-01-30T08:36:39;5.50;99.90
16523;DHT22;19889;52.546;13.348;2024-01-30T08:39:06;5.50;99.90
16523;DHT22;19889;52.546;13.348;2024-01-30T08:41:35;3.70;99.90
16523;DHT22;19889;52.546;13.348;2024-01-30T08:44:03;5.60;99.90
16523;DHT22;19889;52.546;13.348;2024-01-30T08:46:31;5.70;99.90
16523;DHT22;19889;52.546;13.348;2024-01-30T08:48:58;5.70;99.90
16523;DHT22;19889;52.546;13.348;2024-01-30T08:51:25;5.80;99.90
16523;DHT22;19889;52.546;13.348;2024-01-30T08:53:53;5.80;99.90
16523;DHT22;19889;52.546;13.348;2024-01-30T08:56:20;5.90;99.90
16523;DHT22;19889;52.546;13.348;2024-01-30T08:58:49;5.90;99.90
16523;DHT22;19889;52.546;13.348;2024-01-30T09:01:16;6.00;99.90
16523;DHT22;19889;52.546;13.348;2024-01-30T09:03:44;6.10;99.90
16523;DHT22;19889;52.546;13.348;2024-01-30T09:06:12;6.10;99.90
16523;DHT22;19889;52.546;13.348;2024-01-30T09:08:40;6.20;99.90
16523;DHT22;19889;52.546;13.348;2024-01-30T09:11:09;6.30;99.90
16523;DHT22;19889;52.546;13.348;2024-01-30T09:13:36;6.30;99.90
16523;DHT22;19889;52.546;13.348;2024-01-30T09:16:06;6.40;99.90
16523;DHT22;19889;52.546;13.348;2024-01-30T09:18:33;6.50;99.90
16523;DHT22;19889;52.546;13.348;2024-01-30T09:21:00;6.50;99.90
16523;DHT22;19889;52.546;13.348;2024-01-30T09:23:28;6.60;99.90
16523;DHT22;19889;52.546;13.348;2024-01-30T09:25:55;6.60;99.90
16523;DHT22;19889;52.546;13.348;2024-01-30T09:28:22;6.70;99.90
16523;DHT22;19889;52.546;13.348;2024-01-30T09:30:50;6.70;99.90
16523;DHT22;19889;52.546;13.348;2024-01-30T09:33:19;6.80;99.90
16523;DHT22;19889;52.546;13.348;2024-01-30T09:35:46;6.80;99.90
16523;DHT22;19889;52.546;13.348;2024-01-30T09:38:14;6.80;99.90
16523;DHT22;19889;52.546;13.348;2024-01-30T09:40:41;6.80;99.90
16523;DHT22;19889;52.546;13.348;2024-01-30T09:43:11;6.90;99.90
16523;DHT22;19889;52.546;13.348;2024-01-30T09:45:42;6.90;99.90
16523;DHT22;19889;52.546;13.348;2024-01-30T09:48:11;6.90;99.90
16523;DHT22;19889;52.546;13.348;2024-01-30T09:50:40;6.90;99.90
16523;DHT22;19889;52.546;13.348;2024-01-30T09:53:08;7.00;99.90
16523;DHT22;19889;52.546;13.348;2024-01-30T09:55:36;7.00;99.90
16523;DHT22;19889;52.546;13.348;2024-01-30T09:58:04;7.00;99.90
16523;DHT22;19889;52.546;13.348;2024-01-30T10:00:32;7.00;99.90
16523;DHT22;19889;52.546;13.348;2024-01-30T10:03:00;7.00;99.90
16523;DHT22;19889;52.546;13.348;2024-01-30T10:05:27;7.10;99.90
16523;DHT22;19889;52.546;13.348;2024-01-30T10:08:01;7.10;99.90
16523;DHT22;19889;52.546;13.348;2024-01-30T10:10:32;7.20;99.90
16523;DHT22;19889;52.546;13.348;2024-01-30T10:13:00;7.20;99.90
16523;DHT22;19889;52.546;13.348;2024-01-30T10:15:28;7.20;99.90
16523;DHT22;19889;52.546;13.348;2024-01-30T10:17:56;7.30;99.90
16523;DHT22;19889;52.546;13.348;2024-01-30T10:20:25;7.30;99.90
16523;DHT22;19889;52.546;13.348;2024-01-30T10:22:52;7.30;99.90
16523;DHT22;19889;52.546;13.348;2024-01-30T10:25:23;7.30;99.90
16523;DHT22;19889;52.546;13.348;2024-01-30T10:27:53;7.40;99.90
16523;DHT22;19889;52.546;13.348;2024-01-30T10:30:21;7.40;99.90
16523;DHT22;19889;52.546;13.348;2024-01-30T10:32:49;7.40;99.90
16523;DHT22;19889;52.546;13.348;2024-01-30T10:35:17;7.40;99.90
16523;DHT22;19889;52.546;13.348;2024-01-30T10:37:44;7.40;99.90
16523;DHT22;19889;52.546;13.348;2024-01-30T10:40:14;7.40;99.90
16523;DHT22;19889;52.546;13.348;2024-01-30T10:42:45;7.50;99.90
16523;DHT22;19889;52.546;13.348;2024-01-30T10:45:13;7.50;99.90
16523;DHT22;19889;52.546;13.348;2024-01-30T10:47:43;7.50;99.90
16523;DHT22;19889;52.546;13.348;2024-01-30T10:50:15;7.50;99.90
16523;DHT22;19889;52.546;13.348;2024-01-30T10:52:43;7.50;99.90
16523;DHT22;19889;52.546;13.348;2024-01-30T10:55:12;7.50;99.90
16523;DHT22;19889;52.546;13.348;2024-01-30T10:57:41;7.60;99.90
16523;DHT22;19889;52.546;13.348;2024-01-30T11:00:11;7.60;99.90
16523;DHT22;19889;52.546;13.348;2024-01-30T11:02:42;7.60;99.90
16523;DHT22;19889;52.546;13.348;2024-01-30T11:05:11;7.60;99.90
16523;DHT22;19889;52.546;13.348;2024-01-30T11:07:40;7.70;99.90
16523;DHT22;19889;52.546;13.348;2024-01-30T11:10:08;7.70;99.90
16523;DHT22;19889;52.546;13.348;2024-01-30T11:12:40;7.70;99.90
16523;DHT22;19889;52.546;13.348;2024-01-30T11:15:13;7.70;99.90
16523;DHT22;19889;52.546;13.348;2024-01-30T11:17:45;7.70;99.90
16523;DHT22;19889;52.546;13.348;2024-01-30T11:20:20;7.80;99.90
16523;DHT22;19889;52.546;13.348;2024-01-30T11:22:51;7.80;99.90
16523;DHT22;19889;52.546;13.348;2024-01-30T11:25:21;7.80;99.90
16523;DHT22;19889;52.546;13.348;2024-01-30T11:27:50;7.90;99.90
16523;DHT22;19889;52.546;13.348;2024-01-30T11:30:23;7.90;99.90
16523;DHT22;19889;52.546;13.348;2024-01-30T11:33:02;7.90;99.90
16523;DHT22;19889;52.546;13.348;2024-01-30T11:35:32;8.00;99.90
16523;DHT22;19889;52.546;13.348;2024-01-30T11:38:00;8.00;99.90
16523;DHT22;19889;52.546;13.348;2024-01-30T11:40:28;8.00;99.90
16523;DHT22;19889;52.546;13.348;2024-01-30T11:42:56;8.00;99.90
16523;DHT22;19889;52.546;13.348;2024-01-30T11:45:26;8.10;99.90
16523;DHT22;19889;52.546;13.348;2024-01-30T11:47:54;8.10;99.90
16523;DHT22;19889;52.546;13.348;2024-01-30T11:50:22;8.10;99.90
16523;DHT22;19889;52.546;13.348;2024-01-30T11:52:49;8.20;99.90
16523;DHT22;19889;52.546;13.348;2024-01-30T11:55:19;8.20;99.90
16523;DHT22;19889;52.546;13.348;2024-01-30T11:57:48;8.20;99.90
16523;DHT22;19889;52.546;13.348;2024-01-30T12:00:16;8.30;99.90
16523;DHT22;19889;52.546;13.348;2024-01-30T12:02:49;8.30;99.90
16523;DHT22;19889;52.546;13.348;2024-01-30T12:05:19;8.40;99.90
16523;DHT22;19889;52.546;13.348;2024-01-30T12:07:47;8.40;99.90
16523;DHT22;19889;52.546;13.348;2024-01-30T12:10:15;8.50;99.90
16523;DHT22;19889;52.546;13.348;2024-01-30T12:12:46;8.50;99.90
16523;DHT22;19889;52.546;13.348;2024-01-30T12:15:15;8.60;99.90
16523;DHT22;19889;52.546;13.348;2024-01-30T12:17:43;8.60;99.90
16523;DHT22;19889;52.546;13.348;2024-01-30T12:20:13;8.60;99.90
16523;DHT22;19889;52.546;13.348;2024-01-30T12:22:42;8.60;99.90
16523;DHT22;19889;52.546;13.348;2024-01-30T12:25:10;8.70;99.90
16523;DHT22;19889;52.546;13.348;2024-01-30T12:27:38;8.60;99.90
16523;DHT22;19889;52.546;13.348;2024-01-30T12:30:06;8.70;99.90
16523;DHT22;19889;52.546;13.348;2024-01-30T12:32:35;8.60;99.90
16523;DHT22;19889;52.546;13.348;2024-01-30T12:35:03;8.60;99.90
16523;DHT22;19889;52.546;13.348;2024-01-30T12:37:32;8.60;99.90
16523;DHT22;19889;52.546;13.348;2024-01-30T12:40:00;8.60;99.90
16523;DHT22;19889;52.546;13.348;2024-01-30T12:42:27;8.60;99.90
16523;DHT22;19889;52.546;13.348;2024-01-30T12:44:57;8.60;99.90
16523;DHT22;19889;52.546;13.348;2024-01-30T12:47:24;8.60;99.90
16523;DHT22;19889;52.546;13.348;2024-01-30T12:49:52;8.60;99.90
16523;DHT22;19889;52.546;13.348;2024-01-30T12:52:21;8.60;99.90
16523;DHT22;19889;52.546;13.348;2024-01-30T12:54:50;8.60;99.90
16523;DHT22;19889;52.546;13.348;2024-01-30T12:57:18;8.60;99.90
16523;DHT22;19889;52.546;13.348;2024-01-30T12:59:47;8.60;99.90
16523;DHT22;19889;52.546;13.348;2024-01-30T13:02:15;8.60;99.90
16523;DHT22;19889;52.546;13.348;2024-01-30T13:04:43;8.60;99.90
16523;DHT22;19889;52.546;13.348;2024-01-30T13:07:11;8.60;99.90
16523;DHT22;19889;52.546;13.348;2024-01-30T13:09:38;8.60;99.90
16523;DHT22;19889;52.546;13.348;2024-01-30T13:12:07;8.60;99.90
16523;DHT22;19889;52.546;13.348;2024-01-30T13:14:35;8.60;99.90
16523;DHT22;19889;52.546;13.348;2024-01-30T13:17:02;8.60;99.90
16523;DHT22;19889;52.546;13.348;2024-01-30T13:19:30;8.60;99.90
16523;DHT22;19889;52.546;13.348;2024-01-30T13:21:58;8.60;99.90
16523;DHT22;19889;52.546;13.348;2024-01-30T13:24:25;8.60;99.90
16523;DHT22;19889;52.546;13.348;2024-01-30T13:26:53;8.60;99.90
16523;DHT22;19889;52.546;13.348;2024-01-30T13:29:22;8.60;99.90
16523;DHT22;19889;52.546;13.348;2024-01-30T13:31:51;8.60;99.90
16523;DHT22;19889;52.546;13.348;2024-01-30T13:34:18;7.70;99.90
16523;DHT22;19889;52.546;13.348;2024-01-30T13:36:45;8.60;99.90
16523;DHT22;19889;52.546;13.348;2024-01-30T13:39:14;8.60;99.90
16523;DHT22;19889;52.546;13.348;2024-01-30T13:41:42;8.60;99.90
16523;DHT22;19889;52.546;13.348;2024-01-30T13:44:09;8.70;99.90
16523;DHT22;19889;52.546;13.348;2024-01-30T13:46:38;8.70;99.90
16523;DHT22;19889;52.546;13.348;2024-01-30T13:49:06;10.40;99.90
16523;DHT22;19889;52.546;13.348;2024-01-30T13:51:34;8.70;99.90
16523;DHT22;19889;52.546;13.348;2024-01-30T13:54:02;8.70;99.90
16523;DHT22;19889;52.546;13.348;2024-01-30T13:56:29;8.70;99.90
16523;DHT22;19889;52.546;13.348;2024-01-30T13:58:56;8.70;99.90
16523;DHT22;19889;52.546;13.348;2024-01-30T14:01:25;8.70;99.90
16523;DHT22;19889;52.546;13.348;2024-01-30T14:03:53;8.70;99.90
16523;DHT22;19889;52.546;13.348;2024-01-30T14:06:21;8.80;99.90
16523;DHT22;19889;52.546;13.348;2024-01-30T14:08:48;8.80;99.90
16523;DHT22;19889;52.546;13.348;2024-01-30T14:11:16;8.80;99.90
16523;DHT22;19889;52.546;13.348;2024-01-30T14:13:43;8.80;99.90
16523;DHT22;19889;52.546;13.348;2024-01-30T14:16:11;8.80;99.90
16523;DHT22;19889;52.546;13.348;2024-01-30T14:18:38;8.80;99.90
16523;DHT22;19889;52.546;13.348;2024-01-30T14:21:08;8.80;99.90
16523;DHT22;19889;52.546;13.348;2024-01-30T14:23:36;8.80;99.90
16523;DHT22;19889;52.546;13.348;2024-01-30T14:26:04;8.80;99.90
16523;DHT22;19889;52.546;13.348;2024-01-30T14:28:32;8.80;99.90
16523;DHT22;19889;52.546;13.348;2024-01-30T14:31:00;8.80;99.90
16523;DHT22;19889;52.546;13.348;2024-01-30T14:33:27;8.80;99.90
16523;DHT22;19889;52.546;13.348;2024-01-30T14:35:54;8.80;99.90
16523;DHT22;19889;52.546;13.348;2024-01-30T14:38:23;8.80;99.90
16523;DHT22;19889;52.546;13.348;2024-01-30T14:40:52;8.90;99.90
16523;DHT22;19889;52.546;13.348;2024-01-30T14:43:20;8.80;99.90
16523;DHT22;19889;52.546;13.348;2024-01-30T14:45:48;8.80;99.90
16523;DHT22;19889;52.546;13.348;2024-01-30T14:48:18;8.80;99.90
16523;DHT22;19889;52.546;13.348;2024-01-30T14:50:46;8.80;99.90
16523;DHT22;19889;52.546;13.348;2024-01-30T14:53:13;8.80;99.90
16523;DHT22;19889;52.546;13.348;2024-01-30T14:55:42;8.80;99.90
16523;DHT22;19889;52.546;13.348;2024-01-30T14:58:10;8.80;99.90
16523;DHT22;19889;52.546;13.348;2024-01-30T15:00:37;8.80;99.90
16523;DHT22;19889;52.546;13.348;2024-01-30T15:03:05;8.80;99.90
16523;DHT22;19889;52.546;13.348;2024-01-30T15:05:33;8.80;99.90
16523;DHT22;19889;52.546;13.348;2024-01-30T15:08:00;8.80;99.90
16523;DHT22;19889;52.546;13.348;2024-01-30T15:10:28;8.80;99.90
16523;DHT22;19889;52.546;13.348;2024-01-30T15:12:57;8.80;99.90
16523;DHT22;19889;52.546;13.348;2024-01-30T15:15:24;8.80;99.90
16523;DHT22;19889;52.546;13.348;2024-01-30T15:17:54;8.70;99.90
16523;DHT22;19889;52.546;13.348;2024-01-30T15:20:21;8.70;99.90
16523;DHT22;19889;52.546;13.348;2024-01-30T15:22:48;8.70;99.90
16523;DHT22;19889;52.546;13.348;2024-01-30T15:25:16;8.70;99.90
16523;DHT22;19889;52.546;13.348;2024-01-30T15:27:43;8.70;99.90
16523;DHT22;19889;52.546;13.348;2024-01-30T15:30:14;8.70;99.90
16523;DHT22;19889;52.546;13.348;2024-01-30T15:32:41;8.70;99.90
16523;DHT22;19889;52.546;13.348;2024-01-30T15:35:08;8.70;99.90